createdAt,value
2023-04-30T00:00:18.354Z,66.15
2023-04-30T00:01:18.317Z,65.67
2023-04-30T00:02:18.347Z,66.24
2023-04-30T00:03:22.744Z,65.96
2023-04-30T00:04:18.442Z,66.24
2023-04-30T00:05:18.304Z,66.05
2023-04-30T00:06:18.329Z,65.86
2023-04-30T00:07:18.289Z,65.86
2023-04-30T00:08:19.654Z,66.15
2023-04-30T00:09:19.312Z,65.86
2023-04-30T00:10:19.671Z,66.15
2023-04-30T00:11:19.098Z,66.15
2023-04-30T00:12:18.277Z,66.44
2023-04-30T00:13:18.260Z,66.34
2023-04-30T00:14:18.259Z,66.24
2023-04-30T00:15:19.275Z,66.24
2023-04-30T00:16:18.274Z,66.24
2023-04-30T00:17:18.243Z,66.24
2023-04-30T00:18:18.257Z,65.77
2023-04-30T00:19:18.237Z,66.24
2023-04-30T00:20:18.237Z,66.44
2023-04-30T00:21:19.237Z,66.34
2023-04-30T00:22:18.228Z,66.24
2023-04-30T00:23:19.101Z,66.44
2023-04-30T00:24:18.218Z,65.86
2023-04-30T00:25:18.236Z,65.58
2023-04-30T00:26:18.213Z,65.77
2023-04-30T00:27:19.213Z,66.02
2023-04-30T00:28:18.195Z,65.83
2023-04-30T00:29:18.200Z,65.64
2023-04-30T00:30:18.198Z,65.73
2023-04-30T00:31:19.104Z,66.11
2023-04-30T00:32:18.254Z,65.92
2023-04-30T00:33:19.207Z,65.92
2023-04-30T00:34:19.101Z,65.92
2023-04-30T00:35:18.174Z,66.11
2023-04-30T00:36:18.180Z,66.02
2023-04-30T00:37:18.156Z,65.83
2023-04-30T00:38:18.165Z,65.83
2023-04-30T00:39:19.159Z,65.83
2023-04-30T00:40:18.146Z,65.73
2023-04-30T00:41:18.144Z,66.11
2023-04-30T00:42:18.147Z,65.73
2023-04-30T00:43:19.101Z,65.64
2023-04-30T00:44:18.632Z,65.92
2023-04-30T00:45:19.179Z,66.11
2023-04-30T00:46:18.168Z,65.92
2023-04-30T00:47:18.118Z,65.83
2023-04-30T00:48:18.109Z,65.73
2023-04-30T00:49:18.118Z,66.31
2023-04-30T00:50:18.109Z,66.02
2023-04-30T00:51:19.098Z,66.40
2023-04-30T00:52:18.111Z,66.50
2023-04-30T00:53:18.938Z,66.31
2023-04-30T00:54:18.105Z,66.31
2023-04-30T00:55:18.085Z,65.83
2023-04-30T00:56:18.078Z,65.92
2023-04-30T00:57:19.079Z,66.40
2023-04-30T00:58:18.061Z,66.59
2023-04-30T00:59:18.060Z,66.69
2023-04-30T01:00:18.059Z,66.88
2023-04-30T01:01:18.080Z,66.69
2023-04-30T01:02:18.101Z,67.35
2023-04-30T01:03:19.125Z,67.16
2023-04-30T01:04:18.077Z,67.45
2023-04-30T01:05:18.026Z,67.16
2023-04-30T01:06:18.055Z,67.16
2023-04-30T01:07:18.020Z,67.45
2023-04-30T01:08:18.016Z,67.64
2023-04-30T01:09:19.023Z,67.93
2023-04-30T01:10:18.017Z,67.74
2023-04-30T01:11:18.016Z,67.93
2023-04-30T01:12:18.014Z,68.30
2023-04-30T01:13:18.011Z,68.21
2023-04-30T01:14:17.984Z,68.59
2023-04-30T01:15:19.004Z,68.88
2023-04-30T01:16:18.019Z,68.59
2023-04-30T01:17:17.972Z,68.88
2023-04-30T01:18:18.077Z,68.88
2023-04-30T01:19:18.604Z,68.78
2023-04-30T01:20:18.609Z,68.88
2023-04-30T01:21:18.983Z,69.35
2023-04-30T01:22:17.954Z,68.69
2023-04-30T01:23:17.960Z,68.98
2023-04-30T01:24:17.945Z,68.69
2023-04-30T01:25:17.942Z,68.98
2023-04-30T01:26:17.933Z,68.78
2023-04-30T01:27:19.608Z,69.54
2023-04-30T01:28:17.934Z,69.64
2023-04-30T01:29:17.913Z,68.78
2023-04-30T01:30:17.918Z,69.26
2023-04-30T01:31:17.924Z,69.45
2023-04-30T01:32:17.896Z,69.26
2023-04-30T01:33:19.609Z,69.51
2023-04-30T01:34:18.999Z,69.42
2023-04-30T01:35:17.895Z,70.08
2023-04-30T01:36:17.883Z,70.12
2023-04-30T01:37:17.871Z,70.12
2023-04-30T01:38:17.890Z,69.93
2023-04-30T01:39:18.889Z,69.93
2023-04-30T01:40:17.871Z,69.42
2023-04-30T01:41:17.852Z,69.60
2023-04-30T01:42:17.866Z,70.08
2023-04-30T01:43:17.864Z,70.18
2023-04-30T01:44:17.875Z,69.99
2023-04-30T01:45:20.172Z,70.37
2023-04-30T01:46:17.925Z,70.27
2023-04-30T01:47:17.844Z,70.27
2023-04-30T01:48:17.859Z,69.79
2023-04-30T01:49:17.822Z,70.18
2023-04-30T01:50:17.814Z,70.56
2023-04-30T01:51:18.832Z,69.99
2023-04-30T01:52:17.810Z,70.56
2023-04-30T01:53:17.819Z,70.65
2023-04-30T01:54:17.796Z,70.18
2023-04-30T01:55:17.814Z,70.84
2023-04-30T01:56:17.792Z,70.84
2023-04-30T01:57:18.798Z,70.75
2023-04-30T01:58:17.787Z,70.65
2023-04-30T01:59:17.851Z,70.65
2023-04-30T02:00:17.785Z,70.75
2023-04-30T02:01:17.816Z,70.75
2023-04-30T02:02:18.615Z,71.03
2023-04-30T02:03:18.888Z,70.84
2023-04-30T02:04:17.778Z,70.84
2023-04-30T02:05:17.762Z,70.75
2023-04-30T02:06:17.768Z,71.03
2023-04-30T02:07:17.728Z,71.13
2023-04-30T02:08:17.729Z,70.94
2023-04-30T02:09:19.613Z,71.22
2023-04-30T02:10:17.719Z,71.03
2023-04-30T02:11:17.740Z,71.22
2023-04-30T02:12:17.726Z,71.13
2023-04-30T02:13:17.716Z,70.75
2023-04-30T02:14:18.211Z,70.75
2023-04-30T02:15:18.701Z,70.94
2023-04-30T02:16:19.216Z,71.13
2023-04-30T02:17:17.685Z,71.13
2023-04-30T02:18:17.753Z,71.13
2023-04-30T02:19:17.681Z,70.75
2023-04-30T02:20:17.690Z,70.84
2023-04-30T02:21:18.690Z,70.75
2023-04-30T02:22:17.683Z,70.75
2023-04-30T02:23:17.672Z,70.94
2023-04-30T02:24:17.651Z,71.13
2023-04-30T02:25:17.641Z,71.32
2023-04-30T02:26:17.651Z,71.61
2023-04-30T02:27:18.663Z,71.61
2023-04-30T02:28:18.117Z,71.61
2023-04-30T02:29:17.626Z,71.80
2023-04-30T02:30:17.630Z,71.80
2023-04-30T02:31:17.657Z,71.42
2023-04-30T02:32:18.098Z,71.42
2023-04-30T02:33:18.615Z,71.61
2023-04-30T02:34:17.616Z,71.98
2023-04-30T02:35:18.132Z,71.98
2023-04-30T02:36:17.615Z,71.61
2023-04-30T02:37:17.608Z,71.80
2023-04-30T02:38:17.581Z,71.32
2023-04-30T02:39:18.586Z,71.42
2023-04-30T02:40:17.573Z,71.61
2023-04-30T02:41:17.575Z,71.80
2023-04-30T02:42:17.564Z,71.61
2023-04-30T02:43:17.555Z,71.70
2023-04-30T02:44:17.543Z,71.80
2023-04-30T02:45:18.603Z,72.08
2023-04-30T02:46:17.590Z,71.70
2023-04-30T02:47:17.545Z,72.08
2023-04-30T02:48:17.560Z,72.27
2023-04-30T02:49:18.122Z,71.89
2023-04-30T02:50:18.121Z,71.86
2023-04-30T02:51:18.532Z,72.52
2023-04-30T02:52:17.516Z,72.37
2023-04-30T02:53:18.016Z,72.14
2023-04-30T02:54:17.505Z,72.62
2023-04-30T02:55:17.522Z,72.52
2023-04-30T02:56:18.128Z,72.52
2023-04-30T02:57:18.487Z,72.52
2023-04-30T02:58:18.116Z,72.42
2023-04-30T02:59:17.485Z,72.71
2023-04-30T03:00:17.479Z,72.52
2023-04-30T03:01:17.506Z,72.42
2023-04-30T03:02:17.510Z,72.42
2023-04-30T03:03:18.564Z,72.42
2023-04-30T03:04:18.613Z,72.71
2023-04-30T03:05:17.444Z,72.81
2023-04-30T03:06:17.485Z,72.90
2023-04-30T03:07:17.437Z,73.10
2023-04-30T03:08:17.416Z,73.28
2023-04-30T03:09:18.439Z,73.57
2023-04-30T03:10:17.416Z,73.38
2023-04-30T03:11:17.409Z,73.38
2023-04-30T03:12:18.135Z,73.19
2023-04-30T03:13:17.399Z,73.76
2023-04-30T03:14:17.399Z,73.66
2023-04-30T03:15:18.396Z,73.76
2023-04-30T03:16:17.400Z,73.66
2023-04-30T03:17:17.379Z,74.33
2023-04-30T03:18:17.354Z,73.66
2023-04-30T03:19:17.393Z,74.24
2023-04-30T03:20:17.370Z,73.95
2023-04-30T03:21:18.356Z,74.04
2023-04-30T03:22:17.357Z,74.14
2023-04-30T03:23:17.343Z,73.95
2023-04-30T03:24:17.340Z,74.33
2023-04-30T03:25:17.334Z,74.04
2023-04-30T03:26:18.125Z,73.85
2023-04-30T03:27:18.335Z,74.24
2023-04-30T03:28:17.346Z,74.14
2023-04-30T03:29:17.329Z,74.14
2023-04-30T03:30:18.132Z,74.43
2023-04-30T03:31:17.318Z,73.57
2023-04-30T03:32:17.320Z,73.47
2023-04-30T03:33:18.408Z,73.95
2023-04-30T03:34:17.292Z,73.76
2023-04-30T03:35:17.394Z,73.85
2023-04-30T03:36:18.136Z,73.91
2023-04-30T03:37:17.287Z,73.53
2023-04-30T03:38:17.284Z,73.47
2023-04-30T03:39:18.271Z,73.76
2023-04-30T03:40:18.123Z,73.44
2023-04-30T03:41:17.244Z,73.57
2023-04-30T03:42:17.307Z,74.04
2023-04-30T03:43:17.246Z,73.57
2023-04-30T03:44:17.259Z,73.76
2023-04-30T03:45:19.153Z,73.76
2023-04-30T03:46:17.243Z,74.01
2023-04-30T03:47:17.236Z,73.72
2023-04-30T03:48:17.244Z,73.76
2023-04-30T03:49:17.219Z,73.76
2023-04-30T03:50:17.197Z,73.72
2023-04-30T03:51:18.215Z,73.76
2023-04-30T03:52:17.198Z,73.72
2023-04-30T03:53:17.184Z,74.01
2023-04-30T03:54:18.138Z,74.33
2023-04-30T03:55:17.176Z,73.95
2023-04-30T03:56:17.168Z,73.72
2023-04-30T03:57:18.178Z,74.39
2023-04-30T03:58:17.155Z,74.48
2023-04-30T03:59:17.159Z,74.67
2023-04-30T04:00:19.233Z,74.67
2023-04-30T04:01:17.636Z,74.77
2023-04-30T04:02:17.171Z,74.77
2023-04-30T04:03:18.197Z,74.96
2023-04-30T04:04:17.136Z,74.96
2023-04-30T04:05:17.115Z,74.87
2023-04-30T04:06:17.150Z,74.87
2023-04-30T04:07:17.130Z,74.87
2023-04-30T04:08:17.636Z,74.87
2023-04-30T04:09:18.124Z,75.24
2023-04-30T04:10:17.087Z,75.15
2023-04-30T04:11:17.101Z,74.96
2023-04-30T04:12:17.634Z,75.05
2023-04-30T04:13:18.138Z,75.05
2023-04-30T04:14:18.191Z,74.87
2023-04-30T04:15:18.086Z,74.87
2023-04-30T04:16:17.129Z,74.67
2023-04-30T04:17:17.070Z,74.87
2023-04-30T04:18:18.213Z,75.05
2023-04-30T04:19:17.635Z,74.67
2023-04-30T04:20:17.064Z,74.77
2023-04-30T04:21:18.050Z,74.96
2023-04-30T04:22:17.647Z,74.39
2023-04-30T04:23:17.040Z,74.48
2023-04-30T04:24:17.023Z,74.48
2023-04-30T04:25:17.039Z,74.58
2023-04-30T04:26:17.014Z,74.39
2023-04-30T04:27:20.135Z,74.58
2023-04-30T04:28:17.011Z,74.58
2023-04-30T04:29:16.989Z,74.48
2023-04-30T04:30:16.988Z,74.58
2023-04-30T04:31:17.663Z,74.39
2023-04-30T04:32:16.972Z,74.10
2023-04-30T04:33:17.983Z,74.20
2023-04-30T04:34:16.961Z,73.91
2023-04-30T04:35:16.966Z,73.72
2023-04-30T04:36:16.950Z,73.72
2023-04-30T04:37:17.704Z,73.82
2023-04-30T04:38:16.939Z,74.01
2023-04-30T04:39:17.990Z,74.10
2023-04-30T04:40:16.957Z,74.01
2023-04-30T04:41:16.920Z,74.10
2023-04-30T04:42:19.150Z,73.72
2023-04-30T04:43:16.928Z,73.82
2023-04-30T04:44:16.928Z,73.63
2023-04-30T04:45:17.906Z,73.53
2023-04-30T04:46:16.928Z,73.25
2023-04-30T04:47:17.375Z,73.34
2023-04-30T04:48:16.883Z,73.72
2023-04-30T04:49:16.889Z,73.53
2023-04-30T04:50:16.886Z,73.72
2023-04-30T04:51:17.893Z,73.91
2023-04-30T04:52:16.877Z,73.63
2023-04-30T04:53:16.880Z,73.91
2023-04-30T04:54:16.848Z,74.01
2023-04-30T04:55:16.840Z,74.10
2023-04-30T04:56:17.655Z,74.29
2023-04-30T04:57:20.142Z,73.82
2023-04-30T04:58:16.834Z,74.01
2023-04-30T04:59:17.638Z,73.53
2023-04-30T05:00:16.820Z,73.34
2023-04-30T05:01:17.663Z,73.72
2023-04-30T05:02:16.810Z,73.53
2023-04-30T05:03:18.715Z,73.44
2023-04-30T05:04:16.807Z,73.53
2023-04-30T05:05:16.789Z,73.53
2023-04-30T05:06:16.812Z,73.63
2023-04-30T05:07:16.780Z,74.10
2023-04-30T05:08:16.782Z,74.29
2023-04-30T05:09:18.667Z,74.10
2023-04-30T05:10:17.644Z,74.01
2023-04-30T05:11:16.765Z,73.91
2023-04-30T05:12:16.743Z,73.91
2023-04-30T05:13:16.754Z,73.63
2023-04-30T05:14:16.736Z,73.72
2023-04-30T05:15:17.753Z,74.20
2023-04-30T05:16:16.792Z,73.91
2023-04-30T05:17:16.733Z,73.91
2023-04-30T05:18:17.649Z,74.20
2023-04-30T05:19:16.707Z,74.29
2023-04-30T05:20:17.189Z,73.53
2023-04-30T05:21:17.715Z,73.15
2023-04-30T05:22:17.654Z,73.53
2023-04-30T05:23:16.696Z,74.01
2023-04-30T05:24:17.648Z,74.48
2023-04-30T05:25:16.688Z,74.20
2023-04-30T05:26:16.686Z,74.39
2023-04-30T05:27:17.684Z,74.39
2023-04-30T05:28:16.716Z,74.39
2023-04-30T05:29:17.643Z,74.20
2023-04-30T05:30:16.653Z,74.87
2023-04-30T05:31:17.507Z,74.48
2023-04-30T05:32:16.661Z,74.58
2023-04-30T05:33:17.649Z,74.39
2023-04-30T05:34:16.635Z,73.63
2023-04-30T05:35:16.616Z,73.72
2023-04-30T05:36:17.140Z,73.82
2023-04-30T05:37:16.613Z,73.91
2023-04-30T05:38:16.648Z,74.39
2023-04-30T05:39:17.647Z,73.82
2023-04-30T05:40:16.600Z,73.91
2023-04-30T05:41:16.609Z,73.72
2023-04-30T05:42:16.600Z,73.72
2023-04-30T05:43:16.594Z,73.72
2023-04-30T05:44:16.585Z,74.01
2023-04-30T05:45:17.645Z,74.24
2023-04-30T05:46:16.623Z,73.47
2023-04-30T05:47:16.581Z,73.76
2023-04-30T05:48:16.619Z,73.85
2023-04-30T05:49:16.563Z,73.28
2023-04-30T05:50:17.168Z,72.81
2023-04-30T05:51:17.592Z,72.14
2023-04-30T05:52:17.142Z,72.42
2023-04-30T05:53:16.542Z,72.33
2023-04-30T05:54:16.537Z,72.14
2023-04-30T05:55:16.587Z,72.62
2023-04-30T05:56:17.149Z,72.33
2023-04-30T05:57:17.575Z,72.56
2023-04-30T05:58:16.536Z,71.61
2023-04-30T05:59:16.594Z,71.61
2023-04-30T06:00:16.572Z,71.22
2023-04-30T06:01:16.549Z,70.75
2023-04-30T06:02:17.759Z,70.40
2023-04-30T06:03:17.657Z,69.64
2023-04-30T06:04:16.575Z,69.07
2023-04-30T06:05:16.632Z,68.88
2023-04-30T06:06:17.191Z,68.69
2023-04-30T06:07:16.569Z,68.30
2023-04-30T06:08:16.637Z,67.86
2023-04-30T06:09:17.618Z,67.20
2023-04-30T06:10:17.162Z,67.00
2023-04-30T06:11:16.612Z,66.72
2023-04-30T06:12:16.964Z,66.44
2023-04-30T06:13:16.628Z,66.24
2023-04-30T06:14:16.622Z,66.09
2023-04-30T06:15:17.673Z,65.80
2023-04-30T06:16:16.830Z,65.61
2023-04-30T06:17:16.672Z,64.75
2023-04-30T06:18:16.657Z,64.37
2023-04-30T06:19:16.679Z,63.89
2023-04-30T06:20:16.667Z,64.02
2023-04-30T06:21:17.700Z,63.45
2023-04-30T06:22:16.698Z,62.97
2023-04-30T06:23:16.705Z,62.97
2023-04-30T06:24:16.714Z,62.52
2023-04-30T06:25:16.738Z,61.00
2023-04-30T06:26:16.726Z,60.42
2023-04-30T06:27:17.754Z,60.52
2023-04-30T06:28:16.751Z,61.00
2023-04-30T06:29:17.682Z,60.81
2023-04-30T06:30:16.801Z,60.36
2023-04-30T06:31:17.760Z,60.27
2023-04-30T06:32:16.843Z,60.17
2023-04-30T06:33:17.827Z,59.41
2023-04-30T06:34:16.884Z,58.83
2023-04-30T06:35:17.697Z,58.10
2023-04-30T06:36:16.851Z,58.19
2023-04-30T06:37:16.842Z,58.29
2023-04-30T06:38:16.859Z,57.71
2023-04-30T06:39:17.901Z,57.24
2023-04-30T06:40:16.884Z,56.88
2023-04-30T06:41:16.912Z,57.07
2023-04-30T06:42:17.685Z,56.50
2023-04-30T06:43:16.921Z,55.83
2023-04-30T06:44:17.485Z,55.16
2023-04-30T06:45:17.952Z,54.97
2023-04-30T06:46:16.999Z,54.97
2023-04-30T06:47:17.715Z,55.67
2023-04-30T06:48:16.966Z,55.19
2023-04-30T06:49:16.987Z,54.80
2023-04-30T06:50:16.995Z,54.14
2023-04-30T06:51:18.071Z,54.26
2023-04-30T06:52:17.010Z,53.28
2023-04-30T06:53:17.037Z,53.59
2023-04-30T06:54:17.123Z,52.92
2023-04-30T06:55:17.059Z,52.73
2023-04-30T06:56:17.065Z,53.11
2023-04-30T06:57:18.104Z,52.73
2023-04-30T06:58:17.089Z,53.02
2023-04-30T06:59:17.188Z,52.63
2023-04-30T07:00:17.136Z,52.92
2023-04-30T07:01:17.164Z,52.34
2023-04-30T07:02:17.631Z,52.25
2023-04-30T07:03:18.319Z,51.77
2023-04-30T07:04:17.186Z,51.79
2023-04-30T07:05:17.183Z,52.47
2023-04-30T07:06:17.266Z,52.37
2023-04-30T07:07:18.223Z,51.89
2023-04-30T07:08:17.715Z,51.22
2023-04-30T07:09:18.249Z,51.03
2023-04-30T07:10:17.249Z,51.32
2023-04-30T07:11:17.634Z,50.84
2023-04-30T07:12:17.271Z,50.67
2023-04-30T07:13:17.287Z,51.06
2023-04-30T07:14:17.368Z,50.20
2023-04-30T07:15:18.334Z,50.48
2023-04-30T07:16:19.726Z,50.48
2023-04-30T07:17:17.473Z,50.20
2023-04-30T07:18:17.375Z,50.29
2023-04-30T07:19:17.384Z,50.38
2023-04-30T07:20:17.377Z,50.20
2023-04-30T07:21:18.475Z,50.00
2023-04-30T07:22:17.454Z,49.81
2023-04-30T07:23:17.504Z,49.14
2023-04-30T07:24:17.429Z,49.16
2023-04-30T07:25:18.228Z,48.30
2023-04-30T07:26:17.477Z,49.36
2023-04-30T07:27:18.486Z,49.74
2023-04-30T07:28:18.210Z,48.21
2023-04-30T07:29:17.496Z,48.11
2023-04-30T07:30:18.214Z,49.07
2023-04-30T07:31:17.557Z,48.11
2023-04-30T07:32:17.538Z,48.11
2023-04-30T07:33:18.630Z,47.75
2023-04-30T07:34:17.576Z,47.66
2023-04-30T07:35:18.215Z,47.46
2023-04-30T07:36:17.606Z,47.56
2023-04-30T07:37:18.236Z,47.37
2023-04-30T07:38:17.622Z,47.56
2023-04-30T07:39:18.652Z,46.89
2023-04-30T07:40:25.514Z,46.79
2023-04-30T07:41:17.795Z,46.31
2023-04-30T07:42:18.226Z,45.86
2023-04-30T07:43:17.706Z,44.87
2023-04-30T07:44:17.725Z,44.70
2023-04-30T07:45:19.727Z,45.54
2023-04-30T07:46:17.766Z,45.83
2023-04-30T07:47:17.788Z,46.05
2023-04-30T07:48:17.981Z,45.86
2023-04-30T07:49:18.737Z,45.95
2023-04-30T07:50:17.815Z,45.67
2023-04-30T07:51:18.842Z,45.95
2023-04-30T07:52:17.835Z,45.76
2023-04-30T07:53:17.862Z,45.18
2023-04-30T07:54:17.854Z,43.84
2023-04-30T07:55:17.884Z,43.73
2023-04-30T07:56:17.884Z,44.49
2023-04-30T07:57:19.731Z,45.37
2023-04-30T07:58:17.903Z,45.28
2023-04-30T07:59:17.916Z,45.16
2023-04-30T08:00:18.743Z,44.59
2023-04-30T08:01:17.990Z,44.78
2023-04-30T08:02:18.049Z,45.07
2023-04-30T08:03:19.114Z,45.64
2023-04-30T08:04:18.030Z,45.93
2023-04-30T08:05:18.030Z,45.74
2023-04-30T08:06:18.049Z,45.93
2023-04-30T08:07:18.777Z,45.67
2023-04-30T08:08:18.767Z,45.57
2023-04-30T08:09:19.075Z,44.40
2023-04-30T08:10:18.074Z,44.61
2023-04-30T08:11:19.308Z,45.54
2023-04-30T08:12:18.126Z,45.67
2023-04-30T08:13:18.115Z,45.00
2023-04-30T08:14:18.210Z,44.03
2023-04-30T08:15:19.182Z,43.73
2023-04-30T08:16:18.184Z,44.78
2023-04-30T08:17:18.190Z,44.97
2023-04-30T08:18:18.752Z,45.36
2023-04-30T08:19:18.160Z,46.31
2023-04-30T08:20:18.219Z,46.98
2023-04-30T08:21:19.197Z,45.83
2023-04-30T08:22:18.250Z,45.45
2023-04-30T08:23:18.254Z,45.95
2023-04-30T08:24:18.770Z,45.57
2023-04-30T08:25:18.232Z,45.95
2023-04-30T08:26:18.268Z,45.47
2023-04-30T08:27:19.289Z,45.47
2023-04-30T08:28:24.263Z,45.00
2023-04-30T08:29:18.254Z,45.00
2023-04-30T08:30:18.764Z,44.03
2023-04-30T08:31:18.291Z,43.65
2023-04-30T08:32:18.296Z,44.70
2023-04-30T08:33:19.369Z,44.23
2023-04-30T08:34:18.294Z,43.17
2023-04-30T08:35:18.273Z,42.98
2023-04-30T08:36:18.293Z,42.98
2023-04-30T08:37:18.282Z,43.65
2023-04-30T08:38:18.291Z,43.17
2023-04-30T08:39:19.309Z,42.60
2023-04-30T08:40:18.310Z,43.17
2023-04-30T08:41:18.299Z,43.27
2023-04-30T08:42:18.301Z,41.90
2023-04-30T08:43:18.306Z,42.77
2023-04-30T08:44:19.332Z,42.21
2023-04-30T08:45:19.320Z,41.93
2023-04-30T08:46:18.367Z,42.00
2023-04-30T08:47:18.338Z,42.10
2023-04-30T08:48:18.346Z,42.38
2023-04-30T08:49:18.329Z,42.29
2023-04-30T08:50:18.400Z,41.42
2023-04-30T08:51:19.354Z,41.13
2023-04-30T08:52:18.339Z,40.94
2023-04-30T08:53:18.336Z,41.33
2023-04-30T08:54:18.354Z,41.33
2023-04-30T08:55:18.354Z,40.84
2023-04-30T08:56:18.481Z,41.23
2023-04-30T08:57:19.350Z,39.50
2023-04-30T08:58:19.279Z,40.66
2023-04-30T08:59:18.368Z,42.29
2023-04-30T09:00:18.405Z,42.27
2023-04-30T09:01:18.406Z,41.78
2023-04-30T09:02:19.969Z,40.64
2023-04-30T09:03:19.409Z,39.48
2023-04-30T09:04:18.359Z,39.77
2023-04-30T09:05:18.357Z,39.58
2023-04-30T09:06:18.498Z,38.53
2023-04-30T09:07:18.374Z,37.38
2023-04-30T09:08:18.365Z,36.99
2023-04-30T09:09:19.362Z,38.24
2023-04-30T09:10:18.390Z,39.68
2023-04-30T09:11:18.399Z,39.29
2023-04-30T09:12:20.025Z,39.48
2023-04-30T09:13:18.378Z,39.87
2023-04-30T09:14:18.351Z,39.68
2023-04-30T09:15:19.351Z,39.39
2023-04-30T09:16:18.423Z,39.01
2023-04-30T09:17:18.351Z,39.01
2023-04-30T09:18:19.944Z,38.91
2023-04-30T09:19:19.298Z,39.39
2023-04-30T09:20:18.397Z,38.60
2023-04-30T09:21:19.365Z,36.98
2023-04-30T09:22:18.354Z,37.36
2023-04-30T09:23:18.408Z,38.41
2023-04-30T09:24:18.872Z,38.70
2023-04-30T09:25:18.355Z,39.65
2023-04-30T09:26:20.018Z,39.94
2023-04-30T09:27:19.374Z,40.52
2023-04-30T09:28:19.841Z,40.52
2023-04-30T09:29:18.356Z,41.00
2023-04-30T09:30:18.377Z,40.52
2023-04-30T09:31:19.427Z,38.79
2023-04-30T09:32:18.922Z,39.20
2023-04-30T09:33:19.395Z,39.08
2023-04-30T09:34:18.349Z,38.79
2023-04-30T09:35:18.350Z,39.08
2023-04-30T09:36:18.354Z,39.48
2023-04-30T09:37:18.380Z,39.47
2023-04-30T09:38:18.353Z,37.36
2023-04-30T09:39:19.357Z,38.32
2023-04-30T09:40:18.348Z,38.12
2023-04-30T09:41:18.357Z,38.32
2023-04-30T09:42:18.862Z,38.12
2023-04-30T09:43:18.346Z,36.47
2023-04-30T09:44:18.348Z,36.77
2023-04-30T09:45:19.358Z,38.59
2023-04-30T09:46:18.435Z,39.35
2023-04-30T09:47:18.344Z,38.96
2023-04-30T09:48:19.314Z,38.39
2023-04-30T09:49:18.374Z,38.68
2023-04-30T09:50:18.354Z,38.59
2023-04-30T09:51:19.367Z,37.63
2023-04-30T09:52:18.338Z,37.53
2023-04-30T09:53:18.347Z,37.80
2023-04-30T09:54:19.361Z,38.39
2023-04-30T09:55:18.342Z,37.70
2023-04-30T09:56:18.364Z,38.39
2023-04-30T09:57:19.364Z,38.76
2023-04-30T09:58:18.381Z,38.56
2023-04-30T09:59:18.349Z,37.32
2023-04-30T10:00:18.349Z,39.33
2023-04-30T10:01:18.402Z,39.72
2023-04-30T10:02:18.364Z,39.72
2023-04-30T10:03:19.348Z,39.43
2023-04-30T10:04:18.357Z,38.18
2023-04-30T10:05:18.333Z,37.70
2023-04-30T10:06:18.363Z,38.66
2023-04-30T10:07:20.808Z,39.14
2023-04-30T10:08:18.343Z,39.43
2023-04-30T10:09:19.354Z,38.95
2023-04-30T10:10:18.334Z,37.72
2023-04-30T10:11:18.336Z,37.99
2023-04-30T10:12:18.322Z,37.04
2023-04-30T10:13:19.376Z,36.65
2023-04-30T10:14:18.331Z,37.13
2023-04-30T10:15:19.361Z,37.23
2023-04-30T10:16:19.366Z,36.17
2023-04-30T10:17:18.333Z,34.36
2023-04-30T10:18:18.327Z,34.55
2023-04-30T10:19:18.344Z,35.20
2023-04-30T10:20:18.364Z,35.68
2023-04-30T10:21:19.338Z,35.02
2023-04-30T10:22:18.355Z,34.81
2023-04-30T10:23:18.317Z,35.77
2023-04-30T10:24:19.403Z,35.96
2023-04-30T10:25:18.315Z,36.92
2023-04-30T10:26:18.326Z,37.11
2023-04-30T10:27:19.325Z,37.02
2023-04-30T10:28:18.313Z,37.02
2023-04-30T10:29:18.804Z,38.54
2023-04-30T10:30:18.335Z,38.54
2023-04-30T10:31:18.308Z,37.68
2023-04-30T10:32:18.408Z,37.97
2023-04-30T10:33:19.347Z,38.34
2023-04-30T10:34:18.310Z,38.43
2023-04-30T10:35:18.311Z,38.62
2023-04-30T10:36:18.312Z,39.40
2023-04-30T10:37:18.322Z,39.40
2023-04-30T10:38:18.301Z,38.93
2023-04-30T10:39:19.322Z,38.83
2023-04-30T10:40:18.305Z,38.71
2023-04-30T10:41:18.308Z,39.20
2023-04-30T10:42:18.291Z,39.22
2023-04-30T10:43:18.299Z,38.81
2023-04-30T10:44:18.294Z,39.10
2023-04-30T10:45:19.302Z,39.39
2023-04-30T10:46:18.416Z,39.29
2023-04-30T10:47:18.292Z,39.00
2023-04-30T10:48:18.312Z,39.77
2023-04-30T10:49:18.289Z,39.86
2023-04-30T10:50:18.349Z,39.96
2023-04-30T10:51:19.288Z,39.39
2023-04-30T10:52:18.277Z,38.91
2023-04-30T10:53:18.273Z,39.58
2023-04-30T10:54:18.287Z,40.44
2023-04-30T10:55:18.812Z,40.44
2023-04-30T10:56:18.278Z,40.06
2023-04-30T10:57:20.394Z,40.53
2023-04-30T10:58:18.276Z,40.15
2023-04-30T10:59:18.272Z,39.77
2023-04-30T11:00:18.273Z,40.53
2023-04-30T11:01:18.345Z,40.92
2023-04-30T11:02:18.286Z,40.44
2023-04-30T11:03:19.538Z,40.82
2023-04-30T11:04:18.294Z,40.53
2023-04-30T11:05:18.457Z,40.44
2023-04-30T11:06:18.308Z,39.96
2023-04-30T11:07:18.258Z,40.82
2023-04-30T11:08:18.264Z,41.68
2023-04-30T11:09:19.372Z,41.11
2023-04-30T11:10:19.308Z,41.01
2023-04-30T11:11:18.813Z,39.96
2023-04-30T11:12:18.288Z,40.82
2023-04-30T11:13:18.258Z,40.63
2023-04-30T11:14:18.282Z,40.44
2023-04-30T11:15:19.262Z,41.11
2023-04-30T11:16:18.278Z,40.72
2023-04-30T11:17:18.256Z,40.82
2023-04-30T11:18:18.243Z,41.20
2023-04-30T11:19:18.811Z,40.92
2023-04-30T11:20:18.812Z,41.87
2023-04-30T11:21:19.809Z,43.12
2023-04-30T11:22:18.256Z,43.12
2023-04-30T11:23:25.332Z,43.12
2023-04-30T11:24:18.248Z,42.93
2023-04-30T11:25:18.251Z,42.83
2023-04-30T11:26:18.733Z,42.16
2023-04-30T11:27:19.320Z,42.44
2023-04-30T11:28:18.228Z,42.16
2023-04-30T11:29:18.274Z,41.97
2023-04-30T11:30:18.219Z,42.54
2023-04-30T11:31:18.274Z,43.02
2023-04-30T11:32:18.282Z,43.50
2023-04-30T11:33:19.254Z,43.12
2023-04-30T11:34:18.255Z,42.07
2023-04-30T11:35:18.241Z,41.49
2023-04-30T11:36:18.221Z,41.39
2023-04-30T11:37:18.827Z,41.49
2023-04-30T11:38:18.220Z,42.16
2023-04-30T11:39:19.230Z,43.12
2023-04-30T11:40:18.210Z,43.21
2023-04-30T11:41:18.825Z,43.59
2023-04-30T11:42:18.215Z,42.73
2023-04-30T11:43:18.209Z,41.68
2023-04-30T11:44:18.211Z,40.63
2023-04-30T11:45:19.824Z,40.44
2023-04-30T11:46:18.228Z,41.78
2023-04-30T11:47:18.198Z,41.68
2023-04-30T11:48:18.195Z,42.07
2023-04-30T11:49:18.219Z,41.49
2023-04-30T11:50:18.204Z,41.68
2023-04-30T11:51:19.225Z,41.97
2023-04-30T11:52:18.196Z,41.87
2023-04-30T11:53:18.230Z,40.82
2023-04-30T11:54:18.189Z,40.72
2023-04-30T11:55:18.215Z,40.44
2023-04-30T11:56:18.203Z,41.01
2023-04-30T11:57:19.208Z,42.16
2023-04-30T11:58:18.188Z,42.64
2023-04-30T11:59:18.835Z,42.16
2023-04-30T12:00:18.200Z,42.16
2023-04-30T12:01:18.199Z,41.78
2023-04-30T12:02:18.264Z,41.49
2023-04-30T12:03:19.307Z,41.97
2023-04-30T12:04:18.877Z,42.16
2023-04-30T12:05:19.393Z,41.49
2023-04-30T12:06:18.199Z,41.78
2023-04-30T12:07:18.175Z,43.02
2023-04-30T12:08:18.833Z,43.21
2023-04-30T12:09:19.180Z,43.02
2023-04-30T12:10:18.175Z,43.02
2023-04-30T12:11:18.173Z,42.16
2023-04-30T12:12:18.167Z,42.44
2023-04-30T12:13:18.200Z,42.93
2023-04-30T12:14:18.170Z,43.88
2023-04-30T12:15:19.188Z,43.21
2023-04-30T12:16:18.189Z,42.64
2023-04-30T12:17:18.157Z,42.07
2023-04-30T12:18:18.158Z,42.25
2023-04-30T12:19:18.150Z,42.35
2023-04-30T12:20:18.202Z,42.73
2023-04-30T12:21:19.838Z,42.54
2023-04-30T12:22:18.169Z,42.35
2023-04-30T12:23:18.172Z,42.35
2023-04-30T12:24:18.851Z,42.64
2023-04-30T12:25:19.351Z,42.83
2023-04-30T12:26:18.171Z,43.02
2023-04-30T12:27:19.195Z,42.93
2023-04-30T12:28:18.132Z,42.35
2023-04-30T12:29:18.181Z,41.78
2023-04-30T12:30:18.129Z,42.16
2023-04-30T12:31:18.140Z,41.58
2023-04-30T12:32:18.251Z,41.68
2023-04-30T12:33:19.264Z,40.82
2023-04-30T12:34:18.148Z,41.01
2023-04-30T12:35:18.144Z,41.11
2023-04-30T12:36:18.140Z,40.15
2023-04-30T12:37:18.136Z,39.96
2023-04-30T12:38:18.132Z,39.96
2023-04-30T12:39:19.147Z,39.10
2023-04-30T12:40:18.859Z,38.81
2023-04-30T12:41:18.129Z,38.53
2023-04-30T12:42:18.119Z,39.00
2023-04-30T12:43:18.123Z,39.96
2023-04-30T12:44:18.137Z,40.34
2023-04-30T12:45:19.128Z,40.82
2023-04-30T12:46:18.192Z,40.82
2023-04-30T12:47:18.141Z,41.49
2023-04-30T12:48:18.164Z,42.16
2023-04-30T12:49:18.107Z,42.07
2023-04-30T12:50:18.106Z,41.78
2023-04-30T12:51:19.119Z,42.16
2023-04-30T12:52:18.116Z,42.73